Time;durP1;ratioP1;P1;durP2;ratioP2;P2;SDS_P1;SDS_P2;PMS_P1;PMS_P2;Temp;Humidity;BMP_temperature;BMP_pressure;BME280_temperature;BME280_humidity;BME280_pressure;Samples;Min_cycle;Max_cycle;Signal;HPM_P1;HPM_P2
2024/01/01 00:01:56;;;;;;;30.57;27.40;;;5.30;99.90;;;;;;4897347;29;20245;-77
2024/01/01 00:04:24;;;;;;;29.30;25.33;;;5.40;99.90;;;;;;4897895;29;20229;-77
2024/01/01 00:06:52;;;;;;;24.97;22.47;;;5.50;99.90;;;;;;4895889;29;20235;-76
2024/01/01 00:09:19;;;;;;;23.70;21.40;;;5.60;99.90;;;;;;4897539;29;20665;-76
2024/01/01 00:11:45;;;;;;;20.87;19.07;;;5.60;99.90;;;;;;4897492;29;20277;-77
2024/01/01 00:14:12;;;;;;;19.33;17.63;;;5.70;99.90;;;;;;4896746;29;20203;-77
2024/01/01 00:16:39;;;;;;;21.67;19.37;;;5.80;99.90;;;;;;4896766;29;20599;-77
2024/01/01 00:19:06;;;;;;;35.93;29.63;;;5.80;99.90;;;;;;4900233;29;20592;-77
2024/01/01 00:21:33;;;;;;;34.83;27.17;;;5.80;99.90;;;;;;4899555;29;20231;-76
2024/01/01 00:24:02;;;;;;;36.60;30.20;;;5.80;99.90;;;;;;4900847;29;20204;-77
2024/01/01 00:26:29;;;;;;;32.33;28.07;;;5.80;99.90;;;;;;4899778;29;20199;-76
2024/01/01 00:29:02;;;;;;;28.83;25.77;;;5.90;99.90;;;;;;4901002;29;20195;-76
2024/01/01 00:31:30;;;;;;;31.10;27.97;;;5.90;99.90;;;;;;4897834;29;20266;-77
2024/01/01 00:33:57;;;;;;;32.57;28.27;;;5.90;99.90;;;;;;4899270;29;20215;-77
2024/01/01 00:36:24;;;;;;;26.80;24.13;;;5.90;99.90;;;;;;4899259;29;20199;-77
2024/01/01 00:38:51;;;;;;;25.67;23.17;;;5.90;99.90;;;;;;4899312;29;20562;-77
2024/01/01 00:41:19;;;;;;;22.30;20.20;;;5.80;99.90;;;;;;4900758;29;20645;-75
2024/01/01 00:43:47;;;;;;;21.17;19.27;;;5.90;99.90;;;;;;4899274;29;20215;-76
2024/01/01 00:46:14;;;;;;;19.27;17.57;;;5.90;99.90;;;;;;4899388;29;20680;-77
2024/01/01 00:48:41;;;;;;;17.53;16.13;;;5.80;99.90;;;;;;4899140;29;20215;-77
2024/01/01 00:51:08;;;;;;;16.53;15.03;;;5.80;99.90;;;;;;4898949;29;20207;-77
2024/01/01 00:53:35;;;;;;;16.00;14.60;;;5.80;99.90;;;;;;4897549;29;20242;-77
2024/01/01 00:56:02;;;;;;;15.27;14.03;;;5.80;99.90;;;;;;4899003;29;20196;-77
2024/01/01 00:58:30;;;;;;;15.00;13.73;;;5.80;99.90;;;;;;4898176;29;20301;-76
2024/01/01 01:00:57;;;;;;;14.43;13.30;;;5.80;99.90;;;;;;4898385;29;20219;-77
2024/01/01 01:03:23;;;;;;;14.10;13.10;;;5.80;99.90;;;;;;4898869;29;20786;-76
2024/01/01 01:05:50;;;;;;;13.93;12.93;;;5.80;99.90;;;;;;4899003;29;20228;-76
2024/01/01 01:08:17;;;;;;;13.97;12.90;;;5.80;99.90;;;;;;4900666;29;20200;-77
2024/01/01 01:10:44;;;;;;;15.97;14.63;;;5.80;99.90;;;;;;4898972;29;20263;-76
2024/01/01 01:13:11;;;;;;;16.17;14.87;;;5.70;99.90;;;;;;4899848;29;20296;-77
2024/01/01 01:15:39;;;;;;;16.30;14.90;;;5.70;99.90;;;;;;4898986;29;20207;-78
2024/01/01 01:18:06;;;;;;;16.43;14.97;;;5.70;99.90;;;;;;4914357;29;20202;-76
2024/01/01 01:20:33;;;;;;;17.23;15.73;;;5.70;99.90;;;;;;4895071;29;20230;-77
2024/01/01 01:23:00;;;;;;;16.93;15.53;;;5.80;99.90;;;;;;4897747;29;20234;-76
2024/01/01 01:25:27;;;;;;;16.23;14.80;;;5.80;99.90;;;;;;4898706;29;20626;-77
2024/01/01 01:27:53;;;;;;;16.67;15.27;;;5.80;99.90;;;;;;4898324;29;20216;-77
2024/01/01 01:30:20;;;;;;;15.80;14.50;;;5.80;99.90;;;;;;4897517;29;20227;-77
2024/01/01 01:32:49;;;;;;;16.73;15.33;;;5.80;99.90;;;;;;4899092;29;20254;-77
2024/01/01 01:35:16;;;;;;;17.80;16.10;;;5.80;99.90;;;;;;4898649;29;20664;-77
2024/01/01 01:37:44;;;;;;;16.23;14.93;;;5.80;99.90;;;;;;4898022;29;20199;-77
2024/01/01 01:40:12;;;;;;;16.93;15.40;;;5.90;99.90;;;;;;4898870;29;20264;-77
2024/01/01 01:42:38;;;;;;;16.80;15.30;;;5.90;99.90;;;;;;4898382;29;20271;-76
2024/01/01 01:45:06;;;;;;;15.77;14.47;;;5.90;99.90;;;;;;4898502;29;20228;-77
2024/01/01 01:47:34;;;;;;;15.80;14.60;;;6.00;99.90;;;;;;4898374;29;20214;-77
2024/01/01 01:50:03;;;;;;;16.63;15.23;;;6.00;99.90;;;;;;4899286;29;20211;-77
2024/01/01 01:52:30;;;;;;;15.87;14.60;;;6.00;99.90;;;;;;4898025;29;20227;-76
2024/01/01 01:54:58;;;;;;;14.53;13.43;;;6.00;99.90;;;;;;4897212;29;20289;-77
2024/01/01 01:57:25;;;;;;;14.50;13.30;;;6.00;99.90;;;;;;4898084;29;20203;-77
2024/01/01 01:59:52;;;;;;;14.10;13.00;;;5.90;99.90;;;;;;4898111;29;20219;-76
2024/01/01 02:02:22;;;;;;;14.13;12.97;;;6.00;99.90;;;;;;4897734;29;20235;-77
2024/01/01 02:04:50;;;;;;;14.67;13.47;;;5.90;99.90;;;;;;4898727;29;20201;-77
2024/01/01 02:07:20;;;;;;;14.03;12.77;;;6.00;99.90;;;;;;4902664;29;20211;-77
2024/01/01 02:09:47;;;;;;;13.47;12.47;;;6.00;99.90;;;;;;4901595;29;20210;-77
2024/01/01 02:12:14;;;;;;;14.00;12.63;;;6.00;99.90;;;;;;4898666;29;20285;-77
2024/01/01 02:14:41;;;;;;;13.23;12.03;;;6.00;99.90;;;;;;4897769;29;20306;-76
2024/01/01 02:17:08;;;;;;;13.93;12.60;;;6.00;99.90;;;;;;4897683;29;20733;-77
2024/01/01 02:19:35;;;;;;;13.43;12.43;;;6.00;99.90;;;;;;4897702;29;20207;-76
2024/01/01 02:22:02;;;;;;;13.63;12.43;;;6.00;99.90;;;;;;4896851;29;20230;-77
2024/01/01 02:24:31;;;;;;;13.33;12.40;;;6.00;99.90;;;;;;4897607;29;20204;-77
2024/01/01 02:26:58;;;;;;;13.33;12.13;;;5.90;99.90;;;;;;4897830;29;20706;-77
2024/01/01 02:29:25;;;;;;;14.00;12.63;;;5.90;99.90;;;;;;4903636;29;20218;-76
2024/01/01 02:31:52;;;;;;;12.93;11.83;;;5.90;99.90;;;;;;4899059;29;20700;-76
2024/01/01 02:34:19;;;;;;;12.53;11.63;;;5.90;99.90;;;;;;4897922;29;20218;-77
2024/01/01 02:36:46;;;;;;;12.47;11.57;;;5.90;99.90;;;;;;4898346;29;20193;-77
2024/01/01 02:39:13;;;;;;;12.60;11.50;;;5.80;99.90;;;;;;4898306;29;20201;-77
2024/01/01 02:41:41;;;;;;;12.80;11.90;;;5.80;99.90;;;;;;4906013;29;20227;-76
2024/01/01 02:44:08;;;;;;;12.23;11.33;;;5.70;99.90;;;;;;4903367;29;20223;-76
2024/01/01 02:46:35;;;;;;;12.30;11.40;;;5.70;99.90;;;;;;4897078;29;20649;-76
2024/01/01 02:49:02;;;;;;;12.10;11.20;;;5.60;99.90;;;;;;4896745;29;20267;-77
2024/01/01 02:51:29;;;;;;;11.90;11.10;;;5.60;99.90;;;;;;4898054;29;20198;-77
2024/01/01 02:53:57;;;;;;;11.47;10.77;;;5.50;99.90;;;;;;4898235;29;20210;-77
2024/01/01 02:56:24;;;;;;;11.87;10.93;;;5.50;99.90;;;;;;4897067;29;20618;-77
2024/01/01 02:58:55;;;;;;;12.53;11.47;;;5.60;99.90;;;;;;4896908;29;20667;-77
2024/01/01 03:01:21;;;;;;;11.80;11.00;;;5.60;99.90;;;;;;4896400;29;20264;-77
2024/01/01 03:03:49;;;;;;;12.37;11.37;;;5.60;99.90;;;;;;4896754;29;20203;-76
2024/01/01 03:06:18;;;;;;;12.40;11.40;;;5.70;99.90;;;;;;4896539;29;20605;-77
2024/01/01 03:08:46;;;;;;;11.60;10.80;;;5.70;99.90;;;;;;4898129;29;20217;-78
2024/01/01 03:11:12;;;;;;;12.33;11.30;;;5.60;99.90;;;;;;4896567;29;20227;-77
2024/01/01 03:13:39;;;;;;;12.20;11.27;;;5.50;99.90;;;;;;4893549;29;20318;-77
2024/01/01 03:16:08;;;;;;;11.60;10.80;;;5.50;99.90;;;;;;4896572;29;20198;-77
2024/01/01 03:18:35;;;;;;;12.37;11.47;;;5.50;99.90;;;;;;4896384;29;20233;-76
2024/01/01 03:21:03;;;;;;;13.43;12.23;;;5.50;99.90;;;;;;4897788;29;20289;-76
2024/01/01 03:23:30;;;;;;;13.00;11.90;;;5.40;99.90;;;;;;4896435;29;20221;-76
2024/01/01 03:25:57;;;;;;;13.40;12.30;;;5.40;99.90;;;;;;4896912;29;20221;-77
2024/01/01 03:28:23;;;;;;;12.90;11.80;;;5.40;99.90;;;;;;4897170;29;20211;-77
2024/01/01 03:30:50;;;;;;;13.03;11.93;;;5.40;99.90;;;;;;4897686;29;20243;-77
2024/01/01 03:33:18;;;;;;;12.77;11.73;;;5.40;99.90;;;;;;4896741;29;20609;-77
2024/01/01 03:35:45;;;;;;;12.60;11.50;;;5.40;99.90;;;;;;4895230;29;20229;-77
2024/01/01 03:38:12;;;;;;;11.90;11.00;;;5.50;99.90;;;;;;4896796;29;20205;-77
2024/01/01 03:40:40;;;;;;;12.87;11.67;;;5.50;99.90;;;;;;4897012;29;20214;-77
2024/01/01 03:43:07;;;;;;;11.50;10.70;;;5.50;99.90;;;;;;4896912;29;20230;-76
2024/01/01 03:45:33;;;;;;;11.63;10.83;;;5.50;99.90;;;;;;4896267;29;20251;-77
2024/01/01 03:48:00;;;;;;;11.83;11.13;;;5.60;99.90;;;;;;4896511;29;20555;-77
2024/01/01 03:50:29;;;;;;;12.10;11.17;;;5.60;99.90;;;;;;4896829;29;20236;-77
2024/01/01 03:52:56;;;;;;;11.20;10.43;;;5.50;99.90;;;;;;4899586;29;20231;-77
2024/01/01 03:55:22;;;;;;;12.70;11.70;;;5.60;99.90;;;;;;4902340;29;20206;-77
2024/01/01 03:57:49;;;;;;;11.20;10.40;;;5.60;99.90;;;;;;4901151;29;20229;-77
2024/01/01 04:00:17;;;;;;;11.63;10.93;;;5.60;99.90;;;;;;4900435;29;20213;-76
2024/01/01 04:02:46;;;;;;;10.80;10.10;;;5.60;99.90;;;;;;4899858;29;20294;-77
2024/01/01 04:05:13;;;;;;;11.47;10.50;;;5.60;99.90;;;;;;4897993;29;20294;-76
2024/01/01 04:07:42;;;;;;;10.80;10.10;;;5.70;99.90;;;;;;4904175;29;20214;-77
2024/01/01 04:10:10;;;;;;;10.40;9.70;;;5.70;99.90;;;;;;4900820;29;20247;-77
2024/01/01 04:12:37;;;;;;;10.93;10.23;;;5.70;99.90;;;;;;4899912;29;20670;-76
2024/01/01 04:15:04;;;;;;;10.93;10.23;;;5.70;99.90;;;;;;4899766;29;20260;-77
2024/01/01 04:17:32;;;;;;;10.53;9.93;;;5.70;99.90;;;;;;4900350;29;20226;-77
2024/01/01 04:19:59;;;;;;;10.80;10.10;;;5.70;99.90;;;;;;4899640;29;20213;-77
2024/01/01 04:22:25;;;;;;;10.90;10.20;;;5.70;99.90;;;;;;4900993;29;20222;-76
2024/01/01 04:24:54;;;;;;;11.17;10.33;;;5.70;99.90;;;;;;4899595;29;20643;-78
2024/01/01 04:27:20;;;;;;;11.00;10.10;;;5.70;99.90;;;;;;4899164;29;20223;-77
2024/01/01 04:29:47;;;;;;;11.00;10.20;;;5.70;99.90;;;;;;4904572;29;20230;-77
2024/01/01 04:32:14;;;;;;;11.13;10.37;;;5.60;99.90;;;;;;4898713;29;20225;-78
2024/01/01 04:34:41;;;;;;;10.73;9.93;;;5.60;99.90;;;;;;4900326;29;20271;-77
2024/01/01 04:37:08;;;;;;;10.90;10.00;;;5.50;99.90;;;;;;4893109;29;20224;-77
2024/01/01 04:39:35;;;;;;;11.30;10.40;;;5.50;99.90;;;;;;4900535;29;20213;-77
2024/01/01 04:42:03;;;;;;;11.20;10.43;;;5.50;99.90;;;;;;4899757;29;20264;-77
2024/01/01 04:44:30;;;;;;;11.37;10.67;;;5.40;99.90;;;;;;4900174;29;20674;-78
2024/01/01 04:46:57;;;;;;;11.10;10.30;;;5.40;99.90;;;;;;4898509;29;20226;-77
2024/01/01 04:49:23;;;;;;;11.77;10.87;;;5.40;99.90;;;;;;4898794;29;20206;-77
2024/01/01 04:51:50;;;;;;;11.63;10.47;;;5.40;99.90;;;;;;4899615;29;20228;-77
2024/01/01 04:54:17;;;;;;;11.03;10.23;;;5.40;99.90;;;;;;4899339;29;20214;-77
2024/01/01 04:56:44;;;;;;;11.90;10.90;;;5.40;99.90;;;;;;4900046;29;20637;-77
2024/01/01 04:59:12;;;;;;;10.80;10.10;;;5.40;99.90;;;;;;4899445;29;20194;-77
2024/01/01 05:01:38;;;;;;;12.00;11.03;;;5.40;99.90;;;;;;4899602;29;20310;-77
2024/01/01 05:04:05;;;;;;;10.53;9.70;;;5.40;99.90;;;;;;4899248;29;20205;-77
2024/01/01 05:06:32;;;;;;;10.13;9.53;;;5.30;99.90;;;;;;4899308;29;20222;-77
2024/01/01 05:08:59;;;;;;;10.90;10.10;;;5.30;99.90;;;;;;4898297;29;20210;-78
2024/01/01 05:11:26;;;;;;;10.50;9.80;;;5.30;99.90;;;;;;4898352;29;20662;-78
2024/01/01 05:13:52;;;;;;;11.27;10.23;;;5.30;99.90;;;;;;4898997;29;20635;-78
2024/01/01 05:16:20;;;;;;;10.60;9.90;;;5.30;99.90;;;;;;4898967;29;20210;-78
2024/01/01 05:18:47;;;;;;;10.23;9.63;;;5.30;99.90;;;;;;4898921;29;20288;-77
2024/01/01 05:21:14;;;;;;;10.60;9.97;;;5.20;99.90;;;;;;4898682;29;20268;-80
2024/01/01 05:23:41;;;;;;;10.30;9.60;;;5.20;99.90;;;;;;4893301;29;20214;-76
2024/01/01 05:26:08;;;;;;;10.90;10.10;;;5.20;99.90;;;;;;4900429;29;20218;-77
2024/01/01 05:28:34;;;;;;;10.17;9.47;;;5.20;99.90;;;;;;4890524;29;20256;-77
2024/01/01 05:31:00;;;;;;;10.70;9.70;;;5.20;99.90;;;;;;4896638;29;20262;-77
2024/01/01 05:33:28;;;;;;;10.40;9.43;;;5.10;99.90;;;;;;4894407;29;20221;-77
2024/01/01 05:35:55;;;;;;;10.23;9.63;;;5.10;99.90;;;;;;4896712;29;21003;-77
2024/01/01 05:38:22;;;;;;;10.50;9.60;;;5.10;99.90;;;;;;4894198;29;20203;-77
2024/01/01 05:40:49;;;;;;;9.97;9.37;;;5.10;99.90;;;;;;4898791;29;20209;-78
2024/01/01 05:43:15;;;;;;;10.70;9.80;;;5.10;99.90;;;;;;4890401;29;20229;-78
2024/01/01 05:45:42;;;;;;;10.23;9.50;;;5.20;99.90;;;;;;4899494;29;20212;-78
2024/01/01 05:48:09;;;;;;;10.13;9.43;;;5.20;99.90;;;;;;4892167;29;20201;-81
2024/01/01 05:50:37;;;;;;;10.83;10.10;;;5.30;99.90;;;;;;4909483;29;20230;-77
2024/01/01 05:53:06;;;;;;;10.47;9.77;;;5.30;99.90;;;;;;4897439;29;20712;-78
2024/01/01 05:55:33;;;;;;;10.67;9.90;;;5.40;99.90;;;;;;4892051;29;20214;-77
2024/01/01 05:58:00;;;;;;;10.27;9.50;;;5.40;99.90;;;;;;4897652;29;20607;-77
2024/01/01 06:00:29;;;;;;;10.43;9.73;;;5.40;99.90;;;;;;4898193;29;20565;-76
2024/01/01 06:02:55;;;;;;;10.40;9.60;;;5.40;99.90;;;;;;4898368;29;20225;-77
2024/01/01 06:05:22;;;;;;;10.20;9.60;;;5.30;99.90;;;;;;4899637;29;20202;-78
2024/01/01 06:07:54;;;;;;;9.83;9.33;;;5.30;99.90;;;;;;4911475;29;20670;-84
2024/01/01 06:10:21;;;;;;;10.33;9.63;;;5.30;99.90;;;;;;4898098;29;20278;-77
2024/01/01 06:12:48;;;;;;;10.30;9.50;;;5.30;99.90;;;;;;4894812;29;20259;-77
2024/01/01 06:15:15;;;;;;;10.03;9.43;;;5.30;99.90;;;;;;4895521;29;20523;-77
2024/01/01 06:17:41;;;;;;;10.37;9.67;;;5.20;99.90;;;;;;4895563;29;20301;-77
2024/01/01 06:20:09;;;;;;;10.90;10.07;;;5.20;99.90;;;;;;4897983;29;20203;-77
2024/01/01 06:22:35;;;;;;;9.93;9.23;;;5.10;99.90;;;;;;4897942;29;20251;-77
2024/01/01 06:25:04;;;;;;;10.30;9.57;;;5.10;99.90;;;;;;4898001;29;20216;-77
2024/01/01 06:27:31;;;;;;;10.70;9.90;;;5.00;99.90;;;;;;4898193;29;20244;-77
2024/01/01 06:29:58;;;;;;;10.60;9.97;;;5.00;99.90;;;;;;4897822;29;20250;-76
2024/01/01 06:32:25;;;;;;;10.33;9.50;;;5.00;99.90;;;;;;4897880;29;20218;-77
2024/01/01 06:34:51;;;;;;;10.30;9.50;;;4.90;99.90;;;;;;4898152;29;20740;-77
2024/01/01 06:37:18;;;;;;;10.33;9.67;;;4.90;99.90;;;;;;4897827;29;20554;-76
2024/01/01 06:39:45;;;;;;;10.30;9.50;;;4.80;99.90;;;;;;4898436;29;20656;-77
2024/01/01 06:42:15;;;;;;;10.50;9.73;;;4.90;99.90;;;;;;4897284;29;20223;-77
2024/01/01 06:44:42;;;;;;;10.90;9.90;;;4.90;99.90;;;;;;4897899;29;20203;-77
2024/01/01 06:47:09;;;;;;;10.33;9.73;;;4.90;99.90;;;;;;4897452;29;20267;-77
2024/01/01 06:49:36;;;;;;;10.50;9.80;;;5.00;99.90;;;;;;4897846;29;20203;-76
2024/01/01 06:52:03;;;;;;;10.57;9.83;;;5.10;99.90;;;;;;4896428;29;20229;-76
2024/01/01 06:54:30;;;;;;;10.70;9.80;;;5.10;99.90;;;;;;4896944;29;20686;-78
2024/01/01 06:56:57;;;;;;;10.60;9.80;;;5.10;99.90;;;;;;4900527;29;20203;-79
2024/01/01 06:59:28;;;;;;;11.20;10.47;;;5.10;99.90;;;;;;4898458;29;20205;-81
2024/01/01 07:01:57;;;;;;;10.60;10.00;;;5.10;99.90;;;;;;4906472;29;20228;-77
2024/01/01 07:04:24;;;;;;;10.53;9.80;;;5.10;99.90;;;;;;4898815;29;20209;-77
2024/01/01 07:06:51;;;;;;;10.47;9.77;;;5.20;99.90;;;;;;4895484;29;20226;-85
2024/01/01 07:09:18;;;;;;;10.50;9.80;;;5.30;99.90;;;;;;4887460;29;20632;-77
2024/01/01 07:11:45;;;;;;;10.40;9.70;;;5.40;99.90;;;;;;4892212;29;20261;-78
2024/01/01 07:14:12;;;;;;;11.00;10.20;;;5.40;99.90;;;;;;4898160;29;20568;-77
2024/01/01 07:16:40;;;;;;;12.07;10.93;;;5.50;99.90;;;;;;4898995;29;20214;-78
2024/01/01 07:19:07;;;;;;;10.90;10.20;;;5.60;99.90;;;;;;4898804;29;20206;-77
2024/01/01 07:21:34;;;;;;;11.40;10.40;;;5.60;99.90;;;;;;4897638;29;20209;-78
2024/01/01 07:24:00;;;;;;;11.10;10.20;;;5.70;99.90;;;;;;4898606;29;20226;-77
2024/01/01 07:26:28;;;;;;;11.33;10.27;;;5.70;99.90;;;;;;4897814;29;20197;-77
2024/01/01 07:28:55;;;;;;;11.53;10.53;;;5.70;99.90;;;;;;4898566;29;20297;-77
2024/01/01 07:31:22;;;;;;;10.93;10.07;;;5.80;99.90;;;;;;4905267;29;20198;-77
2024/01/01 07:33:50;;;;;;;11.00;10.20;;;5.80;99.90;;;;;;4897993;29;20203;-77
2024/01/01 07:36:17;;;;;;;11.67;10.70;;;5.90;99.90;;;;;;4898096;29;20210;-79
2024/01/01 07:38:44;;;;;;;10.97;10.17;;;5.90;99.90;;;;;;4896951;29;20218;-76
2024/01/01 07:41:11;;;;;;;11.10;10.30;;;5.90;99.90;;;;;;4897749;29;20244;-77
2024/01/01 07:43:39;;;;;;;10.70;10.10;;;5.80;99.90;;;;;;4896555;29;20716;-77
2024/01/01 07:46:09;;;;;;;11.13;10.20;;;5.80;99.90;;;;;;4896108;29;20691;-77
2024/01/01 07:48:36;;;;;;;10.93;10.23;;;5.80;99.90;;;;;;4897759;29;20301;-83
2024/01/01 07:51:04;;;;;;;11.40;10.50;;;5.80;99.90;;;;;;4901046;29;20198;-78
2024/01/01 07:53:32;;;;;;;11.10;10.20;;;5.80;99.90;;;;;;4897459;29;20278;-77
2024/01/01 07:56:01;;;;;;;11.63;10.67;;;5.90;99.90;;;;;;4897950;29;20270;-76
2024/01/01 07:58:28;;;;;;;10.70;10.00;;;5.90;99.90;;;;;;4896262;29;20195;-77
2024/01/01 08:00:55;;;;;;;11.17;10.37;;;6.00;99.90;;;;;;4897464;29;20262;-77
2024/01/01 08:03:21;;;;;;;10.90;10.20;;;6.10;99.90;;;;;;4905416;29;20225;-77
2024/01/01 08:05:48;;;;;;;11.47;10.53;;;6.10;99.90;;;;;;4897574;29;20618;-77
2024/01/01 08:08:16;;;;;;;11.90;10.70;;;6.20;99.90;;;;;;4896247;29;20720;-79
2024/01/01 08:10:43;;;;;;;11.40;10.50;;;6.20;99.90;;;;;;4890287;29;20211;-78
2024/01/01 08:13:11;;;;;;;11.33;10.60;;;6.20;99.90;;;;;;4889127;29;20235;-77
2024/01/01 08:15:38;;;;;;;11.23;10.53;;;6.20;99.90;;;;;;4895385;29;20207;-78
2024/01/01 08:18:06;;;;;;;11.90;10.80;;;6.20;99.90;;;;;;4895432;29;20634;-77
2024/01/01 08:20:33;;;;;;;11.60;10.70;;;6.10;99.90;;;;;;4885775;29;20231;-78
2024/01/01 08:23:00;;;;;;;12.00;11.13;;;6.10;99.90;;;;;;4904013;29;20256;-77
2024/01/01 08:25:28;;;;;;;11.37;10.47;;;6.20;99.90;;;;;;4896449;29;20587;-78
2024/01/01 08:27:54;;;;;;;11.30;10.50;;;6.30;99.90;;;;;;4896423;29;20255;-78
2024/01/01 08:30:21;;;;;;;12.00;11.00;;;6.40;99.90;;;;;;4896227;29;20208;-78
2024/01/01 08:32:48;;;;;;;12.47;11.47;;;6.40;99.90;;;;;;4896632;29;20275;-78
2024/01/01 08:35:15;;;;;;;12.80;11.67;;;6.30;99.90;;;;;;4893001;29;20589;-77
2024/01/01 08:37:43;;;;;;;12.40;11.40;;;6.30;99.90;;;;;;4900622;29;20207;-78
2024/01/01 08:40:11;;;;;;;11.40;10.60;;;6.40;99.90;;;;;;4905272;29;20572;-80
2024/01/01 08:42:39;;;;;;;11.70;10.70;;;6.60;99.90;;;;;;4903335;29;20231;-77
2024/01/01 08:45:07;;;;;;;11.27;10.50;;;6.80;99.90;;;;;;4906704;29;20235;-78
2024/01/01 08:47:34;;;;;;;11.40;10.70;;;7.00;99.90;;;;;;4907295;29;20887;-78
2024/01/01 08:50:01;;;;;;;11.30;10.40;;;7.20;99.90;;;;;;4908444;29;20196;-77
2024/01/01 08:52:28;;;;;;;11.00;10.30;;;7.40;99.90;;;;;;4904658;29;20243;-78
2024/01/01 08:54:54;;;;;;;11.33;10.43;;;7.50;99.90;;;;;;4896389;29;20212;-78
2024/01/01 08:57:21;;;;;;;11.10;10.30;;;7.50;99.90;;;;;;4902058;29;20225;-79
2024/01/01 08:59:48;;;;;;;11.60;10.60;;;7.60;99.90;;;;;;4901994;29;20216;-78
2024/01/01 09:02:16;;;;;;;11.00;10.20;;;7.50;99.90;;;;;;4911422;29;20220;-78
2024/01/01 09:04:43;;;;;;;11.17;10.27;;;7.50;99.90;;;;;;4905786;29;20209;-78
2024/01/01 09:07:10;;;;;;;11.00;10.10;;;7.40;99.90;;;;;;4900410;29;20216;-78
2024/01/01 09:09:37;;;;;;;11.30;10.43;;;7.40;99.90;;;;;;4901750;29;20676;-76
2024/01/01 09:12:05;;;;;;;11.10;10.40;;;7.50;99.90;;;;;;4898404;29;20361;-77
2024/01/01 09:14:31;;;;;;;10.70;10.10;;;7.60;99.90;;;;;;4908945;29;20288;-77
2024/01/01 09:17:00;;;;;;;11.03;10.20;;;7.60;99.90;;;;;;4897875;29;20208;-77
2024/01/01 09:19:26;;;;;;;11.63;10.87;;;7.60;99.90;;;;;;4898675;29;20235;-77
2024/01/01 09:21:53;;;;;;;11.10;10.30;;;7.50;99.90;;;;;;4897674;29;20224;-77
2024/01/01 09:24:20;;;;;;;11.07;10.27;;;7.40;99.90;;;;;;4897309;29;20360;-77
2024/01/01 09:26:47;;;;;;;10.53;9.87;;;7.40;99.90;;;;;;4898065;29;20204;-77
2024/01/01 09:29:14;;;;;;;10.80;10.00;;;7.30;99.90;;;;;;4897709;29;20287;-76
2024/01/01 09:31:41;;;;;;;10.10;9.50;;;7.40;99.90;;;;;;4898668;29;20715;-77
2024/01/01 09:34:09;;;;;;;10.03;9.43;;;7.50;99.90;;;;;;4898500;29;20196;-76
2024/01/01 09:36:37;;;;;;;9.93;9.27;;;7.60;99.90;;;;;;4899268;29;20204;-77
2024/01/01 09:39:04;;;;;;;10.50;9.80;;;7.80;99.90;;;;;;4890932;29;20197;-77
2024/01/01 09:41:31;;;;;;;9.00;8.40;;;7.80;99.90;;;;;;4896546;29;20631;-78
2024/01/01 09:43:58;;;;;;;9.40;8.53;;;7.80;99.90;;;;;;4894424;29;20227;-77
2024/01/01 09:46:28;;;;;;;9.37;8.63;;;7.80;99.90;;;;;;4894808;29;20688;-77
2024/01/01 09:48:55;;;;;;;9.70;9.00;;;7.70;99.90;;;;;;4897571;29;20220;-77
2024/01/01 09:51:24;;;;;;;9.07;8.37;;;7.70;99.90;;;;;;4897280;29;20621;-77
2024/01/01 09:53:52;;;;;;;9.47;8.77;;;7.70;99.90;;;;;;4896833;29;20211;-76
2024/01/01 09:56:20;;;;;;;9.00;8.20;;;7.60;99.90;;;;;;4897941;29;20218;-76
2024/01/01 09:58:47;;;;;;;10.17;9.20;;;7.60;99.90;;;;;;4897939;29;20279;-76
2024/01/01 10:01:15;;;;;;;9.60;8.80;;;7.60;99.90;;;;;;4896657;29;20575;-76
2024/01/01 10:03:42;;;;;;;9.93;9.10;;;7.60;99.90;;;;;;4897051;29;20227;-76
2024/01/01 10:06:10;;;;;;;9.70;8.90;;;7.60;99.90;;;;;;4895606;29;20253;-76
2024/01/01 10:08:39;;;;;;;9.90;9.10;;;7.60;99.90;;;;;;4897698;29;20243;-77
2024/01/01 10:11:16;;;;;;;8.80;8.27;;;7.70;99.90;;;;;;4897532;29;20288;-76
2024/01/01 10:13:43;;;;;;;9.67;9.17;;;7.70;99.90;;;;;;4898048;29;20256;-76
2024/01/01 10:16:09;;;;;;;9.90;9.30;;;7.70;99.90;;;;;;4897474;29;20284;-77
2024/01/01 10:18:36;;;;;;;9.87;9.10;;;7.60;99.90;;;;;;4896299;29;20735;-75
2024/01/01 10:21:11;;;;;;;9.83;9.13;;;7.70;99.90;;;;;;4886833;29;20208;-76
2024/01/01 10:23:39;;;;;;;10.30;9.60;;;7.70;99.90;;;;;;4897145;29;20228;-76
2024/01/01 10:26:07;;;;;;;9.67;8.87;;;7.70;99.90;;;;;;4896114;29;20283;-76
2024/01/01 10:28:35;;;;;;;9.97;9.27;;;7.80;99.90;;;;;;4895768;29;20254;-76
2024/01/01 10:31:03;;;;;;;9.40;8.60;;;7.80;99.90;;;;;;4896836;29;20265;-76
2024/01/01 10:33:31;;;;;;;9.53;8.83;;;7.80;99.90;;;;;;4897075;29;20711;-76
2024/01/01 10:36:01;;;;;;;10.57;9.23;;;7.80;99.90;;;;;;4897072;29;20204;-76
2024/01/01 10:38:30;;;;;;;10.23;9.27;;;7.80;99.90;;;;;;4897858;29;20252;-76
2024/01/01 10:41:00;;;;;;;9.87;9.07;;;7.80;99.90;;;;;;4897999;29;20275;-77
2024/01/01 10:43:27;;;;;;;9.73;9.07;;;7.90;99.90;;;;;;4889840;29;20229;-77
2024/01/01 10:46:01;;;;;;;10.47;9.77;;;7.90;99.90;;;;;;4897447;29;20207;-77
2024/01/01 10:48:28;;;;;;;10.43;9.63;;;7.90;99.90;;;;;;4897450;29;20212;-77
2024/01/01 10:51:04;;;;;;;10.60;9.73;;;8.00;99.90;;;;;;4898122;29;20304;-77
2024/01/01 10:53:53;;;;;;;9.57;8.77;;;8.00;99.90;;;;;;4897842;29;20215;-77
2024/01/01 10:56:32;;;;;;;9.77;9.10;;;8.10;99.90;;;;;;4899361;29;20205;-78
2024/01/01 10:59:08;;;;;;;9.73;8.87;;;8.20;99.90;;;;;;4899219;29;20579;-78
2024/01/01 11:01:37;;;;;;;9.83;8.80;;;8.30;99.90;;;;;;4894445;29;20200;-78
2024/01/01 11:04:04;;;;;;;10.00;9.00;;;8.30;99.90;;;;;;4895923;29;20565;-78
2024/01/01 11:06:33;;;;;;;9.40;8.60;;;8.40;99.90;;;;;;4893258;29;20204;-78
2024/01/01 11:09:31;;;;;;;9.70;8.80;;;8.50;99.90;;;;;;4893472;29;20224;-79
2024/01/01 11:12:02;;;;;;;9.60;8.80;;;8.60;99.90;;;;;;4895389;29;20810;-79
2024/01/01 11:14:29;;;;;;;10.87;9.90;;;8.60;99.90;;;;;;4897560;29;20196;-79
2024/01/01 11:16:58;;;;;;;9.50;8.80;;;8.60;99.90;;;;;;4895717;29;20208;-79
2024/01/01 11:19:42;;;;;;;10.07;9.07;;;8.60;99.90;;;;;;4896835;29;20232;-78
2024/01/01 11:22:31;;;;;;;9.83;9.00;;;8.70;99.90;;;;;;4896803;29;20225;-78
2024/01/01 11:24:59;;;;;;;10.43;9.73;;;8.70;99.90;;;;;;4893237;29;20280;-77
2024/01/01 11:27:28;;;;;;;10.20;9.30;;;8.70;99.90;;;;;;4888196;29;20212;-78
2024/01/01 11:30:00;;;;;;;11.30;10.20;;;8.70;99.90;;;;;;4895631;29;20596;-80
2024/01/01 11:32:26;;;;;;;11.37;9.90;;;8.70;99.90;;;;;;4893333;29;20248;-77
2024/01/01 11:35:07;;;;;;;9.90;9.17;;;8.70;99.90;;;;;;4889857;29;20205;-80
2024/01/01 11:37:34;;;;;;;10.23;9.40;;;8.70;99.90;;;;;;4892612;29;20276;-79
2024/01/01 11:40:02;;;;;;;9.50;8.90;;;8.70;99.90;;;;;;4896483;29;20215;-79
2024/01/01 11:42:30;;;;;;;10.20;9.37;;;8.70;99.90;;;;;;4895105;29;20798;-77
2024/01/01 11:45:07;;;;;;;9.90;9.10;;;8.70;99.90;;;;;;4892595;29;20205;-78
2024/01/01 11:47:35;;;;;;;10.00;9.20;;;8.70;99.90;;;;;;4892509;29;20201;-79
2024/01/01 11:50:02;;;;;;;10.10;9.30;;;8.70;99.90;;;;;;4885194;29;20224;-78
2024/01/01 11:52:29;;;;;;;10.17;9.40;;;8.70;99.90;;;;;;4892346;29;20231;-78
2024/01/01 11:54:56;;;;;;;9.77;9.00;;;8.70;99.90;;;;;;4894656;29;20224;-77
2024/01/01 11:57:22;;;;;;;10.20;9.40;;;8.70;99.90;;;;;;4893428;29;20729;-77
2024/01/01 11:59:51;;;;;;;10.63;9.63;;;8.80;99.90;;;;;;4896882;29;20727;-76
2024/01/01 12:02:18;;;;;;;9.83;9.13;;;8.80;99.90;;;;;;4897044;29;20213;-78
2024/01/01 12:04:46;;;;;;;10.10;9.37;;;8.80;99.90;;;;;;4895878;29;20355;-77
2024/01/01 12:07:27;;;;;;;10.00;9.10;;;8.90;99.90;;;;;;4894998;29;20616;-77
2024/01/01 12:10:02;;;;;;;10.67;9.53;;;8.90;99.90;;;;;;4896828;29;20213;-77
2024/01/01 12:12:29;;;;;;;10.53;9.70;;;8.90;99.90;;;;;;4885461;29;20280;-77
2024/01/01 12:15:11;;;;;;;10.20;9.40;;;9.00;99.90;;;;;;4900427;29;20205;-79
2024/01/01 12:17:44;;;;;;;12.40;9.73;;;9.00;99.90;;;;;;4897494;29;20200;-79
2024/01/01 12:20:15;;;;;;;10.23;9.30;;;9.10;99.90;;;;;;4901208;29;20222;-79
2024/01/01 12:22:42;;;;;;;12.53;9.60;;;9.20;99.90;;;;;;4907704;29;20229;-76
2024/01/01 12:25:15;;;;;;;10.27;9.40;;;9.20;99.90;;;;;;4899181;29;20209;-76
2024/01/01 12:27:42;;;;;;;10.17;9.33;;;9.20;99.90;;;;;;4900497;29;20212;-76
2024/01/01 12:30:24;;;;;;;10.30;9.43;;;9.30;99.90;;;;;;4899142;29;20244;-76
2024/01/01 12:32:51;;;;;;;10.97;10.03;;;9.30;99.90;;;;;;4898964;29;20885;-76
2024/01/01 12:35:18;;;;;;;10.50;9.70;;;9.30;99.90;;;;;;4900209;29;20201;-76
2024/01/01 12:37:46;;;;;;;10.00;9.20;;;9.20;99.90;;;;;;4898736;29;20213;-76
2024/01/01 12:40:13;;;;;;;10.50;9.60;;;9.20;99.90;;;;;;4898794;29;20205;-78
2024/01/01 12:42:40;;;;;;;10.70;9.83;;;9.20;99.90;;;;;;4907595;29;20228;-77
2024/01/01 12:45:07;;;;;;;10.80;9.83;;;9.10;99.90;;;;;;4890048;29;20213;-76
2024/01/01 12:47:35;;;;;;;10.07;9.27;;;9.00;99.90;;;;;;4891815;29;20702;-76